KOGD

Ogden-Hinckley Airport

Ogden, Utah, USA
METAR KOGD 171753Z 02007KT 10SM CLR 16/M03 A3028 RMK AO2 SLP227 T01611028 10161 20078 50001
Observed Flight Rules
Oct-17 @ 17:53 UTC (28 minutes ago) Visual Flight Rules
Wind Visibility Clouds
20° at 7 knots 10 miles
  • Clear skies
Temperatures Readings
Current 16°C / 61°F
Dewpoint -3°C / 27°F
Humidity 27%
Altimeter 30.28" Hg
Pressure 1022.7 hPa
Elevation 1353
METAR KOGD 171753Z 02007KT 10SM CLR 16/M03 A3028 RMK AO2 SLP227 T01611028 10161 20078 50001
Observed Flight Rules
Oct-17 @ 17:53 UTC
(28 minutes ago)
VFR
Wind Visibility
20° at 7 knots 10 miles
Clouds
  • Clear skies
Temperature Dewpoint
16°C / 61°F -3°C / 27°F
Humidity Altimeter Pressure
27% 30.28" Hg 1022.7 hPa